sensor_id;sensor_type;location;lat;lon;timestamp;pressure;altitude;pressure_sealevel;temperature
19040;BMP180;9652;49.014;12.052;2024-02-14T00:00:51;98296.00;;;6.00
19040;BMP180;9652;49.014;12.052;2024-02-14T00:03:18;98286.00;;;6.00
19040;BMP180;9652;49.014;12.052;2024-02-14T00:05:47;98301.00;;;6.00
19040;BMP180;9652;49.014;12.052;2024-02-14T00:08:14;98296.00;;;6.00
19040;BMP180;9652;49.014;12.052;2024-02-14T00:10:42;98286.00;;;5.90
19040;BMP180;9652;49.014;12.052;2024-02-14T00:13:10;98303.00;;;5.90
19040;BMP180;9652;49.014;12.052;2024-02-14T00:15:37;98299.00;;;5.90
19040;BMP180;9652;49.014;12.052;2024-02-14T00:18:05;98303.00;;;5.80
19040;BMP180;9652;49.014;12.052;2024-02-14T00:20:32;98297.00;;;5.80
19040;BMP180;9652;49.014;12.052;2024-02-14T00:23:00;98294.00;;;5.80
19040;BMP180;9652;49.014;12.052;2024-02-14T00:25:28;98294.00;;;5.70
19040;BMP180;9652;49.014;12.052;2024-02-14T00:27:56;98296.00;;;5.70
19040;BMP180;9652;49.014;12.052;2024-02-14T00:30:23;98288.00;;;5.70
19040;BMP180;9652;49.014;12.052;2024-02-14T00:32:50;98268.00;;;5.60
19040;BMP180;9652;49.014;12.052;2024-02-14T00:35:17;98282.00;;;5.60
19040;BMP180;9652;49.014;12.052;2024-02-14T00:37:45;98300.00;;;5.60
19040;BMP180;9652;49.014;12.052;2024-02-14T00:40:13;98294.00;;;5.60
19040;BMP180;9652;49.014;12.052;2024-02-14T00:42:40;98301.00;;;5.50
19040;BMP180;9652;49.014;12.052;2024-02-14T00:45:08;98301.00;;;5.50
19040;BMP180;9652;49.014;12.052;2024-02-14T00:47:35;98308.00;;;5.50
19040;BMP180;9652;49.014;12.052;2024-02-14T00:50:03;98287.00;;;5.50
19040;BMP180;9652;49.014;12.052;2024-02-14T00:52:31;98303.00;;;5.40
19040;BMP180;9652;49.014;12.052;2024-02-14T00:54:58;98299.00;;;5.40
19040;BMP180;9652;49.014;12.052;2024-02-14T00:57:26;98297.00;;;5.40
19040;BMP180;9652;49.014;12.052;2024-02-14T00:59:54;98300.00;;;5.30
19040;BMP180;9652;49.014;12.052;2024-02-14T01:02:22;98303.00;;;5.30
19040;BMP180;9652;49.014;12.052;2024-02-14T01:04:49;98310.00;;;5.30
19040;BMP180;9652;49.014;12.052;2024-02-14T01:07:16;98305.00;;;5.30
19040;BMP180;9652;49.014;12.052;2024-02-14T01:09:43;98298.00;;;5.30
19040;BMP180;9652;49.014;12.052;2024-02-14T01:12:10;98309.00;;;5.30
19040;BMP180;9652;49.014;12.052;2024-02-14T01:14:39;98301.00;;;5.40
19040;BMP180;9652;49.014;12.052;2024-02-14T01:17:06;98300.00;;;5.40
19040;BMP180;9652;49.014;12.052;2024-02-14T01:19:34;98294.00;;;5.20
19040;BMP180;9652;49.014;12.052;2024-02-14T01:22:01;98304.00;;;5.40
19040;BMP180;9652;49.014;12.052;2024-02-14T01:24:28;98296.00;;;5.50
19040;BMP180;9652;49.014;12.052;2024-02-14T01:26:56;98286.00;;;5.50
19040;BMP180;9652;49.014;12.052;2024-02-14T01:29:23;98301.00;;;5.50
19040;BMP180;9652;49.014;12.052;2024-02-14T01:31:51;98297.00;;;5.50
19040;BMP180;9652;49.014;12.052;2024-02-14T01:34:18;98287.00;;;5.50
19040;BMP180;9652;49.014;12.052;2024-02-14T01:36:47;98283.00;;;5.50
19040;BMP180;9652;49.014;12.052;2024-02-14T01:39:14;98297.00;;;5.60
19040;BMP180;9652;49.014;12.052;2024-02-14T01:41:45;98297.00;;;5.60
19040;BMP180;9652;49.014;12.052;2024-02-14T01:44:14;98305.00;;;5.60
19040;BMP180;9652;49.014;12.052;2024-02-14T01:46:41;98292.00;;;5.60
19040;BMP180;9652;49.014;12.052;2024-02-14T01:49:11;98302.00;;;5.60
19040;BMP180;9652;49.014;12.052;2024-02-14T01:51:40;98291.00;;;5.70
19040;BMP180;9652;49.014;12.052;2024-02-14T01:54:11;98307.00;;;5.70
19040;BMP180;9652;49.014;12.052;2024-02-14T01:56:39;98295.00;;;5.80
19040;BMP180;9652;49.014;12.052;2024-02-14T01:59:07;98298.00;;;5.80
19040;BMP180;9652;49.014;12.052;2024-02-14T02:01:35;98299.00;;;5.80
19040;BMP180;9652;49.014;12.052;2024-02-14T02:04:04;98306.00;;;5.80
19040;BMP180;9652;49.014;12.052;2024-02-14T02:06:32;98285.00;;;5.90
19040;BMP180;9652;49.014;12.052;2024-02-14T02:09:00;98311.00;;;5.90
19040;BMP180;9652;49.014;12.052;2024-02-14T02:11:27;98304.00;;;5.90
19040;BMP180;9652;49.014;12.052;2024-02-14T02:13:54;98310.00;;;5.90
19040;BMP180;9652;49.014;12.052;2024-02-14T02:16:21;98307.00;;;6.00
19040;BMP180;9652;49.014;12.052;2024-02-14T02:18:48;98268.00;;;6.00
19040;BMP180;9652;49.014;12.052;2024-02-14T02:21:15;98306.00;;;6.00
19040;BMP180;9652;49.014;12.052;2024-02-14T02:23:47;98288.00;;;5.60
19040;BMP180;9652;49.014;12.052;2024-02-14T02:26:14;98302.00;;;6.10
19040;BMP180;9652;49.014;12.052;2024-02-14T02:28:41;98296.00;;;6.00
19040;BMP180;9652;49.014;12.052;2024-02-14T02:31:09;98300.00;;;6.10
19040;BMP180;9652;49.014;12.052;2024-02-14T02:33:36;98294.00;;;6.10
19040;BMP180;9652;49.014;12.052;2024-02-14T02:36:04;98251.00;;;6.10
19040;BMP180;9652;49.014;12.052;2024-02-14T02:38:32;98295.00;;;6.00
19040;BMP180;9652;49.014;12.052;2024-02-14T02:41:00;98296.00;;;6.00
19040;BMP180;9652;49.014;12.052;2024-02-14T02:43:27;98293.00;;;6.00
19040;BMP180;9652;49.014;12.052;2024-02-14T02:45:54;98294.00;;;6.00
19040;BMP180;9652;49.014;12.052;2024-02-14T02:48:23;98291.00;;;6.00
19040;BMP180;9652;49.014;12.052;2024-02-14T02:50:50;98295.00;;;6.00
19040;BMP180;9652;49.014;12.052;2024-02-14T02:53:18;98281.00;;;6.00
19040;BMP180;9652;49.014;12.052;2024-02-14T02:55:45;98297.00;;;6.00
19040;BMP180;9652;49.014;12.052;2024-02-14T02:58:14;98290.00;;;6.00
19040;BMP180;9652;49.014;12.052;2024-02-14T03:00:41;98299.00;;;6.00
19040;BMP180;9652;49.014;12.052;2024-02-14T03:03:09;98300.00;;;6.00
19040;BMP180;9652;49.014;12.052;2024-02-14T03:05:36;98305.00;;;5.90
19040;BMP180;9652;49.014;12.052;2024-02-14T03:08:05;98290.00;;;5.90
19040;BMP180;9652;49.014;12.052;2024-02-14T03:10:33;98279.00;;;5.90
19040;BMP180;9652;49.014;12.052;2024-02-14T03:13:00;98300.00;;;5.90
19040;BMP180;9652;49.014;12.052;2024-02-14T03:15:29;98285.00;;;5.80
19040;BMP180;9652;49.014;12.052;2024-02-14T03:17:56;98291.00;;;5.90
19040;BMP180;9652;49.014;12.052;2024-02-14T03:20:23;98299.00;;;5.80
19040;BMP180;9652;49.014;12.052;2024-02-14T03:22:50;98297.00;;;5.90
19040;BMP180;9652;49.014;12.052;2024-02-14T03:25:20;98298.00;;;5.90
19040;BMP180;9652;49.014;12.052;2024-02-14T03:27:47;98273.00;;;5.90
19040;BMP180;9652;49.014;12.052;2024-02-14T03:30:19;98295.00;;;6.00
19040;BMP180;9652;49.014;12.052;2024-02-14T03:32:48;98282.00;;;6.00
19040;BMP180;9652;49.014;12.052;2024-02-14T03:35:16;98284.00;;;6.00
19040;BMP180;9652;49.014;12.052;2024-02-14T03:37:45;98298.00;;;6.00
19040;BMP180;9652;49.014;12.052;2024-02-14T03:40:14;98281.00;;;6.10
19040;BMP180;9652;49.014;12.052;2024-02-14T03:42:41;98298.00;;;6.10
19040;BMP180;9652;49.014;12.052;2024-02-14T03:45:09;98301.00;;;6.10
19040;BMP180;9652;49.014;12.052;2024-02-14T03:47:36;98271.00;;;6.10
19040;BMP180;9652;49.014;12.052;2024-02-14T03:50:08;98305.00;;;6.10
19040;BMP180;9652;49.014;12.052;2024-02-14T03:52:35;98227.00;;;6.10
19040;BMP180;9652;49.014;12.052;2024-02-14T03:55:04;98307.00;;;6.10
19040;BMP180;9652;49.014;12.052;2024-02-14T03:57:32;98302.00;;;6.10
19040;BMP180;9652;49.014;12.052;2024-02-14T04:00:01;98297.00;;;6.10
19040;BMP180;9652;49.014;12.052;2024-02-14T04:02:37;98297.00;;;6.10
19040;BMP180;9652;49.014;12.052;2024-02-14T04:05:07;98297.00;;;6.10
19040;BMP180;9652;49.014;12.052;2024-02-14T04:07:34;98289.00;;;6.10
19040;BMP180;9652;49.014;12.052;2024-02-14T04:10:02;98297.00;;;6.20
19040;BMP180;9652;49.014;12.052;2024-02-14T04:12:29;98272.00;;;6.20
19040;BMP180;9652;49.014;12.052;2024-02-14T04:14:56;98290.00;;;6.20
19040;BMP180;9652;49.014;12.052;2024-02-14T04:17:23;98297.00;;;6.10
19040;BMP180;9652;49.014;12.052;2024-02-14T04:19:51;98306.00;;;6.10
19040;BMP180;9652;49.014;12.052;2024-02-14T04:22:19;98302.00;;;6.10
19040;BMP180;9652;49.014;12.052;2024-02-14T04:24:46;98301.00;;;6.10
19040;BMP180;9652;49.014;12.052;2024-02-14T04:27:13;98265.00;;;6.10
19040;BMP180;9652;49.014;12.052;2024-02-14T04:29:41;98287.00;;;6.10
19040;BMP180;9652;49.014;12.052;2024-02-14T04:32:12;98303.00;;;6.10
19040;BMP180;9652;49.014;12.052;2024-02-14T04:34:39;98308.00;;;6.10
19040;BMP180;9652;49.014;12.052;2024-02-14T04:37:07;98303.00;;;6.10
19040;BMP180;9652;49.014;12.052;2024-02-14T04:39:39;98304.00;;;6.10
19040;BMP180;9652;49.014;12.052;2024-02-14T04:42:06;98316.00;;;6.10
19040;BMP180;9652;49.014;12.052;2024-02-14T04:44:34;98305.00;;;6.10
19040;BMP180;9652;49.014;12.052;2024-02-14T04:47:02;98317.00;;;6.10
19040;BMP180;9652;49.014;12.052;2024-02-14T04:49:29;98309.00;;;6.10
19040;BMP180;9652;49.014;12.052;2024-02-14T04:51:57;98320.00;;;6.10
19040;BMP180;9652;49.014;12.052;2024-02-14T04:54:24;98295.00;;;6.10
19040;BMP180;9652;49.014;12.052;2024-02-14T04:56:53;98319.00;;;6.00
19040;BMP180;9652;49.014;12.052;2024-02-14T04:59:20;98313.00;;;6.00
19040;BMP180;9652;49.014;12.052;2024-02-14T05:01:47;98310.00;;;6.00
19040;BMP180;9652;49.014;12.052;2024-02-14T05:04:15;98316.00;;;6.00
19040;BMP180;9652;49.014;12.052;2024-02-14T05:06:43;98306.00;;;6.00
19040;BMP180;9652;49.014;12.052;2024-02-14T05:09:10;98305.00;;;5.90
19040;BMP180;9652;49.014;12.052;2024-02-14T05:11:37;98304.00;;;5.90
19040;BMP180;9652;49.014;12.052;2024-02-14T05:14:06;98300.00;;;5.90
19040;BMP180;9652;49.014;12.052;2024-02-14T05:16:33;98320.00;;;5.90
19040;BMP180;9652;49.014;12.052;2024-02-14T05:19:01;98320.00;;;5.80
19040;BMP180;9652;49.014;12.052;2024-02-14T05:21:28;98319.00;;;5.80
19040;BMP180;9652;49.014;12.052;2024-02-14T05:23:55;98261.00;;;5.80
19040;BMP180;9652;49.014;12.052;2024-02-14T05:26:23;98301.00;;;5.80
19040;BMP180;9652;49.014;12.052;2024-02-14T05:28:50;98309.00;;;5.70
19040;BMP180;9652;49.014;12.052;2024-02-14T05:31:18;98309.00;;;5.70
19040;BMP180;9652;49.014;12.052;2024-02-14T05:33:45;98297.00;;;5.70
19040;BMP180;9652;49.014;12.052;2024-02-14T05:36:12;98310.00;;;5.70
19040;BMP180;9652;49.014;12.052;2024-02-14T05:38:39;98305.00;;;5.60
19040;BMP180;9652;49.014;12.052;2024-02-14T05:41:06;98313.00;;;5.60
19040;BMP180;9652;49.014;12.052;2024-02-14T05:43:34;98313.00;;;5.60
19040;BMP180;9652;49.014;12.052;2024-02-14T05:46:01;98316.00;;;5.60
19040;BMP180;9652;49.014;12.052;2024-02-14T05:48:30;98315.00;;;5.50
19040;BMP180;9652;49.014;12.052;2024-02-14T05:50:57;98328.00;;;5.50
19040;BMP180;9652;49.014;12.052;2024-02-14T05:53:24;98300.00;;;5.50
19040;BMP180;9652;49.014;12.052;2024-02-14T05:55:51;98334.00;;;5.50
19040;BMP180;9652;49.014;12.052;2024-02-14T05:58:18;98334.00;;;5.50
19040;BMP180;9652;49.014;12.052;2024-02-14T06:00:45;98326.00;;;5.50
19040;BMP180;9652;49.014;12.052;2024-02-14T06:03:12;98318.00;;;5.50
19040;BMP180;9652;49.014;12.052;2024-02-14T06:05:41;98319.00;;;5.50
19040;BMP180;9652;49.014;12.052;2024-02-14T06:08:08;98301.00;;;5.50
19040;BMP180;9652;49.014;12.052;2024-02-14T06:10:35;98323.00;;;5.60
19040;BMP180;9652;49.014;12.052;2024-02-14T06:13:04;98324.00;;;5.60
19040;BMP180;9652;49.014;12.052;2024-02-14T06:15:31;98337.00;;;5.60
19040;BMP180;9652;49.014;12.052;2024-02-14T06:17:58;98326.00;;;5.60
19040;BMP180;9652;49.014;12.052;2024-02-14T06:20:25;98349.00;;;5.60
19040;BMP180;9652;49.014;12.052;2024-02-14T06:22:54;98336.00;;;5.60
19040;BMP180;9652;49.014;12.052;2024-02-14T06:25:21;98349.00;;;5.70
19040;BMP180;9652;49.014;12.052;2024-02-14T06:27:48;98359.00;;;5.70
19040;BMP180;9652;49.014;12.052;2024-02-14T06:30:15;98347.00;;;5.70
19040;BMP180;9652;49.014;12.052;2024-02-14T06:32:43;98368.00;;;5.80
19040;BMP180;9652;49.014;12.052;2024-02-14T06:35:10;98383.00;;;5.90
19040;BMP180;9652;49.014;12.052;2024-02-14T06:37:40;98357.00;;;5.90
19040;BMP180;9652;49.014;12.052;2024-02-14T06:40:10;98382.00;;;6.00
19040;BMP180;9652;49.014;12.052;2024-02-14T06:42:37;98381.00;;;6.10
19040;BMP180;9652;49.014;12.052;2024-02-14T06:45:07;98378.00;;;6.10
19040;BMP180;9652;49.014;12.052;2024-02-14T06:47:34;98383.00;;;6.20
19040;BMP180;9652;49.014;12.052;2024-02-14T06:50:01;98381.00;;;6.20
19040;BMP180;9652;49.014;12.052;2024-02-14T06:52:29;98379.00;;;6.30
19040;BMP180;9652;49.014;12.052;2024-02-14T06:54:56;98383.00;;;6.40
19040;BMP180;9652;49.014;12.052;2024-02-14T06:57:25;98383.00;;;6.40
19040;BMP180;9652;49.014;12.052;2024-02-14T06:59:52;98385.00;;;6.50
19040;BMP180;9652;49.014;12.052;2024-02-14T07:02:19;98380.00;;;6.50
19040;BMP180;9652;49.014;12.052;2024-02-14T07:04:46;98383.00;;;6.60
19040;BMP180;9652;49.014;12.052;2024-02-14T07:07:13;98371.00;;;6.60
19040;BMP180;9652;49.014;12.052;2024-02-14T07:09:41;98370.00;;;6.70
19040;BMP180;9652;49.014;12.052;2024-02-14T07:12:08;98378.00;;;6.70
19040;BMP180;9652;49.014;12.052;2024-02-14T07:14:36;98384.00;;;6.80
19040;BMP180;9652;49.014;12.052;2024-02-14T07:17:04;98370.00;;;6.80
19040;BMP180;9652;49.014;12.052;2024-02-14T07:19:31;98380.00;;;6.90
19040;BMP180;9652;49.014;12.052;2024-02-14T07:21:58;98371.00;;;6.90
19040;BMP180;9652;49.014;12.052;2024-02-14T07:24:25;98374.00;;;7.00
19040;BMP180;9652;49.014;12.052;2024-02-14T07:26:52;98363.00;;;7.00
19040;BMP180;9652;49.014;12.052;2024-02-14T07:29:19;98374.00;;;7.10
19040;BMP180;9652;49.014;12.052;2024-02-14T07:31:47;98376.00;;;7.10
19040;BMP180;9652;49.014;12.052;2024-02-14T07:34:14;98393.00;;;7.10
19040;BMP180;9652;49.014;12.052;2024-02-14T07:36:42;98379.00;;;7.20
19040;BMP180;9652;49.014;12.052;2024-02-14T07:39:12;98390.00;;;7.30
19040;BMP180;9652;49.014;12.052;2024-02-14T07:41:39;98374.00;;;7.30
19040;BMP180;9652;49.014;12.052;2024-02-14T07:44:06;98390.00;;;7.40
19040;BMP180;9652;49.014;12.052;2024-02-14T07:46:33;98405.00;;;7.40
19040;BMP180;9652;49.014;12.052;2024-02-14T07:49:02;98399.00;;;7.50
19040;BMP180;9652;49.014;12.052;2024-02-14T07:51:30;98382.00;;;7.50
19040;BMP180;9652;49.014;12.052;2024-02-14T07:54:02;98391.00;;;7.60
19040;BMP180;9652;49.014;12.052;2024-02-14T07:56:29;98412.00;;;7.70
19040;BMP180;9652;49.014;12.052;2024-02-14T07:58:57;98388.00;;;7.70
19040;BMP180;9652;49.014;12.052;2024-02-14T08:01:24;98387.00;;;7.80
19040;BMP180;9652;49.014;12.052;2024-02-14T08:03:51;98398.00;;;7.90
19040;BMP180;9652;49.014;12.052;2024-02-14T08:06:20;98399.00;;;8.00
19040;BMP180;9652;49.014;12.052;2024-02-14T08:08:47;98402.00;;;8.10
19040;BMP180;9652;49.014;12.052;2024-02-14T08:11:17;98380.00;;;8.20
19040;BMP180;9652;49.014;12.052;2024-02-14T08:13:44;98400.00;;;8.20
19040;BMP180;9652;49.014;12.052;2024-02-14T08:16:11;98410.00;;;8.30
19040;BMP180;9652;49.014;12.052;2024-02-14T08:18:39;98402.00;;;8.40
19040;BMP180;9652;49.014;12.052;2024-02-14T08:21:09;98371.00;;;8.50
19040;BMP180;9652;49.014;12.052;2024-02-14T08:23:39;98392.00;;;8.50
19040;BMP180;9652;49.014;12.052;2024-02-14T08:26:07;98379.00;;;8.60
19040;BMP180;9652;49.014;12.052;2024-02-14T08:28:36;98388.00;;;8.60
19040;BMP180;9652;49.014;12.052;2024-02-14T08:31:09;98387.00;;;8.70
19040;BMP180;9652;49.014;12.052;2024-02-14T08:33:36;98381.00;;;8.70
19040;BMP180;9652;49.014;12.052;2024-02-14T08:36:03;98395.00;;;8.70
19040;BMP180;9652;49.014;12.052;2024-02-14T08:38:31;98389.00;;;8.80
19040;BMP180;9652;49.014;12.052;2024-02-14T08:41:01;98387.00;;;8.80
19040;BMP180;9652;49.014;12.052;2024-02-14T08:43:28;98383.00;;;8.80
19040;BMP180;9652;49.014;12.052;2024-02-14T08:45:55;98391.00;;;8.80
19040;BMP180;9652;49.014;12.052;2024-02-14T08:48:23;98383.00;;;8.80
19040;BMP180;9652;49.014;12.052;2024-02-14T08:50:53;98359.00;;;8.70
19040;BMP180;9652;49.014;12.052;2024-02-14T08:53:20;98379.00;;;8.70
19040;BMP180;9652;49.014;12.052;2024-02-14T08:55:47;98384.00;;;8.70
19040;BMP180;9652;49.014;12.052;2024-02-14T08:58:16;98389.00;;;8.70
19040;BMP180;9652;49.014;12.052;2024-02-14T09:00:43;98395.00;;;8.70
19040;BMP180;9652;49.014;12.052;2024-02-14T09:03:10;98389.00;;;8.80
19040;BMP180;9652;49.014;12.052;2024-02-14T09:05:37;98387.00;;;8.90
19040;BMP180;9652;49.014;12.052;2024-02-14T09:08:05;98414.00;;;9.00
19040;BMP180;9652;49.014;12.052;2024-02-14T09:10:32;98399.00;;;9.20
19040;BMP180;9652;49.014;12.052;2024-02-14T09:12:59;98412.00;;;9.30
19040;BMP180;9652;49.014;12.052;2024-02-14T09:15:29;98403.00;;;9.40
19040;BMP180;9652;49.014;12.052;2024-02-14T09:17:57;98402.00;;;9.50
19040;BMP180;9652;49.014;12.052;2024-02-14T09:20:26;98412.00;;;9.60
19040;BMP180;9652;49.014;12.052;2024-02-14T09:22:53;98412.00;;;9.70
19040;BMP180;9652;49.014;12.052;2024-02-14T09:25:20;98407.00;;;9.80
19040;BMP180;9652;49.014;12.052;2024-02-14T09:27:49;98385.00;;;9.90
19040;BMP180;9652;49.014;12.052;2024-02-14T09:30:16;98398.00;;;10.00
19040;BMP180;9652;49.014;12.052;2024-02-14T09:32:45;98383.00;;;10.10
19040;BMP180;9652;49.014;12.052;2024-02-14T09:35:13;98375.00;;;10.20
19040;BMP180;9652;49.014;12.052;2024-02-14T09:37:41;98385.00;;;10.30
19040;BMP180;9652;49.014;12.052;2024-02-14T09:40:10;98400.00;;;10.40
19040;BMP180;9652;49.014;12.052;2024-02-14T09:42:44;98406.00;;;10.60
19040;BMP180;9652;49.014;12.052;2024-02-14T09:45:17;98400.00;;;10.70
19040;BMP180;9652;49.014;12.052;2024-02-14T09:47:47;98402.00;;;10.80
19040;BMP180;9652;49.014;12.052;2024-02-14T09:50:15;98410.00;;;11.00
19040;BMP180;9652;49.014;12.052;2024-02-14T09:52:44;98398.00;;;11.10
19040;BMP180;9652;49.014;12.052;2024-02-14T09:55:15;98409.00;;;11.10
19040;BMP180;9652;49.014;12.052;2024-02-14T09:57:44;98406.00;;;11.20
19040;BMP180;9652;49.014;12.052;2024-02-14T10:00:12;98400.00;;;11.30
19040;BMP180;9652;49.014;12.052;2024-02-14T10:02:40;98398.00;;;11.30
19040;BMP180;9652;49.014;12.052;2024-02-14T10:05:10;98394.00;;;11.30
19040;BMP180;9652;49.014;12.052;2024-02-14T10:07:41;98385.00;;;11.40
19040;BMP180;9652;49.014;12.052;2024-02-14T10:10:10;98391.00;;;11.40
19040;BMP180;9652;49.014;12.052;2024-02-14T10:12:37;98394.00;;;11.40
19040;BMP180;9652;49.014;12.052;2024-02-14T10:15:09;98398.00;;;11.40
19040;BMP180;9652;49.014;12.052;2024-02-14T10:17:38;98407.00;;;11.40
19040;BMP180;9652;49.014;12.052;2024-02-14T10:20:09;98406.00;;;11.40
19040;BMP180;9652;49.014;12.052;2024-02-14T10:22:38;98389.00;;;11.50
19040;BMP180;9652;49.014;12.052;2024-02-14T10:25:06;98405.00;;;11.50
19040;BMP180;9652;49.014;12.052;2024-02-14T10:27:36;98401.00;;;11.50
19040;BMP180;9652;49.014;12.052;2024-02-14T10:30:06;98399.00;;;11.50
19040;BMP180;9652;49.014;12.052;2024-02-14T10:32:35;98404.00;;;11.50
19040;BMP180;9652;49.014;12.052;2024-02-14T10:35:05;98400.00;;;11.60
19040;BMP180;9652;49.014;12.052;2024-02-14T10:37:37;98407.00;;;11.60
19040;BMP180;9652;49.014;12.052;2024-02-14T10:40:09;98406.00;;;11.40
19040;BMP180;9652;49.014;12.052;2024-02-14T10:42:39;98404.00;;;11.60
19040;BMP180;9652;49.014;12.052;2024-02-14T10:45:07;98407.00;;;11.60
19040;BMP180;9652;49.014;12.052;2024-02-14T10:47:36;98395.00;;;11.60
19040;BMP180;9652;49.014;12.052;2024-02-14T10:50:07;98415.00;;;11.60
19040;BMP180;9652;49.014;12.052;2024-02-14T10:52:40;98413.00;;;10.90
19040;BMP180;9652;49.014;12.052;2024-02-14T10:55:08;98398.00;;;11.60
19040;BMP180;9652;49.014;12.052;2024-02-14T10:57:37;98386.00;;;11.60
19040;BMP180;9652;49.014;12.052;2024-02-14T11:00:09;98399.00;;;11.50
19040;BMP180;9652;49.014;12.052;2024-02-14T11:02:40;98381.00;;;11.50
19040;BMP180;9652;49.014;12.052;2024-02-14T11:05:12;98380.00;;;11.40
19040;BMP180;9652;49.014;12.052;2024-02-14T11:07:46;98401.00;;;11.40
19040;BMP180;9652;49.014;12.052;2024-02-14T11:10:17;98391.00;;;11.40
19040;BMP180;9652;49.014;12.052;2024-02-14T11:12:46;98394.00;;;11.40
19040;BMP180;9652;49.014;12.052;2024-02-14T11:15:18;98387.00;;;11.50
19040;BMP180;9652;49.014;12.052;2024-02-14T11:17:46;98393.00;;;11.50
19040;BMP180;9652;49.014;12.052;2024-02-14T11:20:19;98385.00;;;11.30
19040;BMP180;9652;49.014;12.052;2024-02-14T11:22:54;98389.00;;;11.60
19040;BMP180;9652;49.014;12.052;2024-02-14T11:25:33;98362.00;;;11.60
19040;BMP180;9652;49.014;12.052;2024-02-14T11:28:13;98356.00;;;11.70
19040;BMP180;9652;49.014;12.052;2024-02-14T11:30:42;98374.00;;;11.70
19040;BMP180;9652;49.014;12.052;2024-02-14T11:33:19;98378.00;;;11.70
19040;BMP180;9652;49.014;12.052;2024-02-14T11:35:48;98365.00;;;11.80
19040;BMP180;9652;49.014;12.052;2024-02-14T11:38:18;98362.00;;;11.80
19040;BMP180;9652;49.014;12.052;2024-02-14T11:40:46;98344.00;;;11.90
19040;BMP180;9652;49.014;12.052;2024-02-14T11:43:14;98347.00;;;11.80
19040;BMP180;9652;49.014;12.052;2024-02-14T11:45:43;98352.00;;;12.10
19040;BMP180;9652;49.014;12.052;2024-02-14T11:48:13;98370.00;;;11.80
19040;BMP180;9652;49.014;12.052;2024-02-14T11:50:41;98367.00;;;12.20
19040;BMP180;9652;49.014;12.052;2024-02-14T11:53:10;98367.00;;;12.40
19040;BMP180;9652;49.014;12.052;2024-02-14T11:55:39;98357.00;;;12.40
19040;BMP180;9652;49.014;12.052;2024-02-14T11:58:07;98294.00;;;12.50
19040;BMP180;9652;49.014;12.052;2024-02-14T12:00:37;98290.00;;;12.50
19040;BMP180;9652;49.014;12.052;2024-02-14T12:03:09;98354.00;;;12.60
19040;BMP180;9652;49.014;12.052;2024-02-14T12:05:37;98344.00;;;12.70
19040;BMP180;9652;49.014;12.052;2024-02-14T12:08:07;98358.00;;;12.70
19040;BMP180;9652;49.014;12.052;2024-02-14T12:10:35;98348.00;;;12.70
19040;BMP180;9652;49.014;12.052;2024-02-14T12:13:12;98352.00;;;12.80
19040;BMP180;9652;49.014;12.052;2024-02-14T12:15:41;98365.00;;;12.80
19040;BMP180;9652;49.014;12.052;2024-02-14T12:18:08;98363.00;;;12.80
19040;BMP180;9652;49.014;12.052;2024-02-14T12:20:38;98365.00;;;12.80
19040;BMP180;9652;49.014;12.052;2024-02-14T12:23:05;98356.00;;;12.80
19040;BMP180;9652;49.014;12.052;2024-02-14T12:25:33;98352.00;;;12.90
19040;BMP180;9652;49.014;12.052;2024-02-14T12:28:00;98349.00;;;12.90
19040;BMP180;9652;49.014;12.052;2024-02-14T12:30:44;98353.00;;;12.90
19040;BMP180;9652;49.014;12.052;2024-02-14T12:33:13;98341.00;;;13.00
19040;BMP180;9652;49.014;12.052;2024-02-14T12:35:45;98364.00;;;13.10
19040;BMP180;9652;49.014;12.052;2024-02-14T12:38:15;98340.00;;;13.10
19040;BMP180;9652;49.014;12.052;2024-02-14T12:40:42;98360.00;;;13.20
19040;BMP180;9652;49.014;12.052;2024-02-14T12:43:11;98337.00;;;13.20
19040;BMP180;9652;49.014;12.052;2024-02-14T12:45:41;98351.00;;;13.30
19040;BMP180;9652;49.014;12.052;2024-02-14T12:48:10;98334.00;;;13.30
19040;BMP180;9652;49.014;12.052;2024-02-14T12:50:39;98343.00;;;13.30
19040;BMP180;9652;49.014;12.052;2024-02-14T12:53:13;98343.00;;;13.30
19040;BMP180;9652;49.014;12.052;2024-02-14T12:55:41;98272.00;;;13.30
19040;BMP180;9652;49.014;12.052;2024-02-14T12:58:08;98332.00;;;13.30
19040;BMP180;9652;49.014;12.052;2024-02-14T13:00:36;98325.00;;;13.30
19040;BMP180;9652;49.014;12.052;2024-02-14T13:03:05;98317.00;;;13.30
19040;BMP180;9652;49.014;12.052;2024-02-14T13:05:32;98328.00;;;13.30
19040;BMP180;9652;49.014;12.052;2024-02-14T13:08:01;98274.00;;;13.30
19040;BMP180;9652;49.014;12.052;2024-02-14T13:10:28;98345.00;;;13.40
19040;BMP180;9652;49.014;12.052;2024-02-14T13:12:57;98326.00;;;13.40
19040;BMP180;9652;49.014;12.052;2024-02-14T13:15:24;98332.00;;;13.50
19040;BMP180;9652;49.014;12.052;2024-02-14T13:17:51;98338.00;;;13.50
19040;BMP180;9652;49.014;12.052;2024-02-14T13:20:19;98339.00;;;13.60
19040;BMP180;9652;49.014;12.052;2024-02-14T13:22:46;98325.00;;;13.60
19040;BMP180;9652;49.014;12.052;2024-02-14T13:25:14;98334.00;;;13.70
19040;BMP180;9652;49.014;12.052;2024-02-14T13:27:43;98322.00;;;13.70
19040;BMP180;9652;49.014;12.052;2024-02-14T13:30:10;98338.00;;;13.80
19040;BMP180;9652;49.014;12.052;2024-02-14T13:32:37;98309.00;;;13.80
19040;BMP180;9652;49.014;12.052;2024-02-14T13:35:06;98303.00;;;13.80
19040;BMP180;9652;49.014;12.052;2024-02-14T13:37:35;98344.00;;;13.80
19040;BMP180;9652;49.014;12.052;2024-02-14T13:40:02;98334.00;;;13.80
19040;BMP180;9652;49.014;12.052;2024-02-14T13:42:34;98340.00;;;13.90
19040;BMP180;9652;49.014;12.052;2024-02-14T13:45:02;98335.00;;;13.80
19040;BMP180;9652;49.014;12.052;2024-02-14T13:47:29;98331.00;;;13.70
19040;BMP180;9652;49.014;12.052;2024-02-14T13:49:56;98335.00;;;13.70
19040;BMP180;9652;49.014;12.052;2024-02-14T13:52:23;98333.00;;;13.70
19040;BMP180;9652;49.014;12.052;2024-02-14T13:54:52;98323.00;;;13.60
19040;BMP180;9652;49.014;12.052;2024-02-14T13:57:19;98313.00;;;13.60
19040;BMP180;9652;49.014;12.052;2024-02-14T13:59:47;98312.00;;;13.50
19040;BMP180;9652;49.014;12.052;2024-02-14T14:02:14;98323.00;;;13.50
19040;BMP180;9652;49.014;12.052;2024-02-14T14:04:41;98315.00;;;13.40
19040;BMP180;9652;49.014;12.052;2024-02-14T14:07:08;98307.00;;;13.40
19040;BMP180;9652;49.014;12.052;2024-02-14T14:09:35;98310.00;;;13.40
19040;BMP180;9652;49.014;12.052;2024-02-14T14:12:05;98307.00;;;13.30
19040;BMP180;9652;49.014;12.052;2024-02-14T14:14:32;98318.00;;;13.30
19040;BMP180;9652;49.014;12.052;2024-02-14T14:16:59;98317.00;;;13.30
19040;BMP180;9652;49.014;12.052;2024-02-14T14:19:26;98307.00;;;13.30
19040;BMP180;9652;49.014;12.052;2024-02-14T14:21:53;98308.00;;;13.30